Time;durP1;ratioP1;P1;durP2;ratioP2;P2;SDS_P1;SDS_P2;PMS_P1;PMS_P2;Temp;Humidity;BMP_temperature;BMP_pressure;BME280_temperature;BME280_humidity;BME280_pressure;Samples;Min_cycle;Max_cycle;Signal;HPM_P1;HPM_P2
2022/10/29 00:00:49;;;;;;;8.47;4.47;;;;;;;11.83;100.00;101287.97;5000107;28;20283;-73
2022/10/29 00:03:16;;;;;;;7.37;4.40;;;;;;;11.81;100.00;101289.75;4995697;28;20577;-73
2022/10/29 00:05:42;;;;;;;9.93;4.40;;;;;;;11.84;100.00;101287.09;5001242;28;20231;-72
2022/10/29 00:08:10;;;;;;;6.70;4.43;;;;;;;11.86;100.00;101296.59;4999610;28;20193;-73
2022/10/29 00:10:36;;;;;;;7.07;3.83;;;;;;;11.90;100.00;101292.16;4998324;28;20228;-73
2022/10/29 00:13:03;;;;;;;4.93;3.60;;;;;;;11.92;100.00;101290.41;5003208;28;20653;-73
2022/10/29 00:15:30;;;;;;;8.67;4.23;;;;;;;11.98;100.00;101281.56;5001592;28;20692;-71
2022/10/29 00:17:56;;;;;;;6.57;4.03;;;;;;;12.04;100.00;101284.06;4998127;28;20743;-72
2022/10/29 00:20:22;;;;;;;7.53;4.13;;;;;;;12.09;100.00;101279.59;4999073;28;20444;-73
2022/10/29 00:22:52;;;;;;;7.73;3.90;;;;;;;12.11;100.00;101281.28;5004681;28;20233;-73
2022/10/29 00:25:20;;;;;;;5.50;3.60;;;;;;;12.15;100.00;101292.53;5002717;28;20225;-73
2022/10/29 00:27:46;;;;;;;5.97;3.60;;;;;;;12.16;100.00;101282.94;4998914;28;20224;-72
2022/10/29 00:30:13;;;;;;;4.30;3.10;;;;;;;12.14;100.00;101282.97;5000992;28;20224;-73
2022/10/29 00:32:39;;;;;;;6.40;3.30;;;;;;;12.17;100.00;101282.03;4999852;28;20420;-73
2022/10/29 00:35:06;;;;;;;4.77;3.57;;;;;;;12.13;100.00;101284.72;5004141;28;20563;-73
2022/10/29 00:37:32;;;;;;;5.27;3.37;;;;;;;12.15;100.00;101274.22;5005374;28;20204;-72
2022/10/29 00:39:59;;;;;;;5.47;3.10;;;;;;;12.17;100.00;101271.56;5006175;28;20208;-73
2022/10/29 00:42:26;;;;;;;5.97;3.20;;;;;;;12.18;100.00;101276.78;5004425;28;20243;-72
2022/10/29 00:44:53;;;;;;;5.97;3.67;;;;;;;12.16;100.00;101273.34;5000830;28;20768;-73
2022/10/29 00:47:23;;;;;;;8.63;3.23;;;;;;;12.15;100.00;101278.59;5006685;28;20194;-73
2022/10/29 00:49:52;;;;;;;4.00;3.20;;;;;;;12.11;100.00;101272.59;5003005;28;20211;-72
2022/10/29 00:52:22;;;;;;;5.63;3.83;;;;;;;12.08;100.00;101267.41;5004329;28;20709;-72
2022/10/29 00:54:49;;;;;;;7.50;3.90;;;;;;;12.06;100.00;101266.59;5003082;28;20216;-73
2022/10/29 00:57:21;;;;;;;9.53;3.27;;;;;;;12.03;100.00;101259.69;5005722;28;20614;-73
2022/10/29 00:59:49;;;;;;;4.43;3.40;;;;;;;12.00;100.00;101264.13;4999292;28;20209;-72
2022/10/29 01:02:16;;;;;;;5.70;3.60;;;;;;;11.96;100.00;101267.69;5001547;28;20235;-73
2022/10/29 01:04:44;;;;;;;5.13;3.57;;;;;;;11.90;100.00;101263.41;5000918;28;20217;-72
2022/10/29 01:07:11;;;;;;;6.63;3.73;;;;;;;11.85;100.00;101260.03;5003665;28;20197;-72
2022/10/29 01:09:43;;;;;;;8.20;4.20;;;;;;;11.80;100.00;101267.97;5005200;28;20200;-72
2022/10/29 01:12:42;;;;;;;5.50;3.53;;;;;;;11.74;100.00;101266.34;5004992;28;20240;-73
2022/10/29 01:15:20;;;;;;;4.33;3.30;;;;;;;11.70;100.00;101267.31;5002065;28;20196;-72
2022/10/29 01:18:00;;;;;;;7.00;3.43;;;;;;;11.68;100.00;101268.22;5005540;28;20203;-73
2022/10/29 01:21:07;;;;;;;6.87;3.40;;;;;;;11.63;100.00;101276.16;5004340;28;20303;-72
2022/10/29 01:24:24;;;;;;;5.30;3.60;;;;;;;11.58;100.00;101272.78;4927025;29;20229;-71
2022/10/29 01:27:11;;;;;;;6.23;3.40;;;;;;;11.52;100.00;101273.78;5002519;28;20208;-72
2022/10/29 01:29:51;;;;;;;6.73;3.80;;;;;;;11.48;100.00;101269.47;5002165;28;20632;-73
2022/10/29 01:32:24;;;;;;;9.53;3.70;;;;;;;11.42;100.00;101269.63;5002510;28;20237;-72
2022/10/29 01:34:58;;;;;;;6.00;3.60;;;;;;;11.40;100.00;101278.34;5003615;28;20275;-73
2022/10/29 01:37:33;;;;;;;4.90;3.60;;;;;;;11.31;100.00;101280.28;5003390;28;20670;-72
2022/10/29 01:40:07;;;;;;;4.97;3.73;;;;;;;11.27;100.00;101282.97;5004406;28;20208;-73
2022/10/29 01:42:37;;;;;;;5.50;3.60;;;;;;;11.21;100.00;101296.13;5006127;28;20229;-72
2022/10/29 01:45:11;;;;;;;4.43;3.53;;;;;;;11.15;100.00;101295.34;5001281;28;20220;-72
2022/10/29 01:47:44;;;;;;;7.13;3.73;;;;;;;11.10;100.00;101302.41;5001943;28;20800;-73
2022/10/29 01:50:14;;;;;;;5.30;3.20;;;;;;;11.04;100.00;101304.25;5001632;28;20223;-72
2022/10/29 01:52:41;;;;;;;8.33;3.30;;;;;;;11.02;100.00;101306.88;5002072;28;20227;-72
2022/10/29 01:55:08;;;;;;;7.47;4.00;;;;;;;10.95;100.00;101300.06;4999982;28;20490;-72
2022/10/29 01:57:37;;;;;;;6.93;3.37;;;;;;;10.95;100.00;101305.28;5004869;28;20378;-72
2022/10/29 02:00:08;;;;;;;5.33;3.70;;;;;;;10.99;100.00;101299.09;4984027;28;20204;-73
2022/10/29 02:02:53;;;;;;;5.13;3.27;;;;;;;10.95;100.00;101298.28;5001384;28;20239;-72
2022/10/29 02:05:29;;;;;;;3.77;3.03;;;;;;;10.91;100.00;101296.63;5003085;28;20294;-72
2022/10/29 02:08:03;;;;;;;5.60;3.70;;;;;;;10.90;100.00;101296.66;5001486;28;20208;-72
2022/10/29 02:10:38;;;;;;;3.93;3.00;;;;;;;10.87;100.00;101305.41;4986984;28;20222;-72
2022/10/29 02:13:05;;;;;;;5.57;3.10;;;;;;;10.87;100.00;101301.91;5002787;28;20223;-71
2022/10/29 02:15:35;;;;;;;6.00;3.43;;;;;;;10.84;100.00;101307.22;5000699;28;20247;-72
2022/10/29 02:18:05;;;;;;;6.13;3.30;;;;;;;10.82;100.00;101304.63;5004040;28;20597;-72
2022/10/29 02:20:32;;;;;;;10.30;3.33;;;;;;;10.79;100.00;101315.09;5002091;28;20607;-72
2022/10/29 02:22:59;;;;;;;8.97;3.30;;;;;;;10.74;100.00;101322.13;5005730;28;20576;-72
2022/10/29 02:25:26;;;;;;;6.63;3.33;;;;;;;10.68;100.00;101320.47;5002629;28;20220;-72
2022/10/29 02:27:52;;;;;;;6.63;3.23;;;;;;;10.66;100.00;101316.16;5001418;28;20219;-72
2022/10/29 02:30:18;;;;;;;4.27;3.27;;;;;;;10.63;100.00;101305.81;4999287;28;20197;-72
2022/10/29 02:32:45;;;;;;;4.27;3.23;;;;;;;10.60;100.00;101311.91;5001851;28;20243;-73
2022/10/29 02:35:13;;;;;;;4.60;3.10;;;;;;;10.55;100.00;101314.59;5002918;28;20517;-72
2022/10/29 02:37:39;;;;;;;4.83;3.30;;;;;;;10.56;100.00;101311.09;4997372;28;20758;-72
2022/10/29 02:40:07;;;;;;;5.13;3.17;;;;;;;10.54;100.00;101314.63;4999070;28;20208;-73
2022/10/29 02:42:33;;;;;;;3.87;3.10;;;;;;;10.56;100.00;101307.63;5001246;28;20233;-71
2022/10/29 02:44:59;;;;;;;5.93;3.00;;;;;;;10.57;100.00;101317.16;4994617;28;20436;-73
2022/10/29 02:47:26;;;;;;;5.23;3.27;;;;;;;10.58;100.00;101314.53;4999215;28;20434;-72
2022/10/29 02:49:53;;;;;;;6.87;3.40;;;;;;;10.58;100.00;101318.91;4999204;28;20215;-72
2022/10/29 02:52:20;;;;;;;6.53;3.63;;;;;;;10.60;100.00;101322.34;4998599;28;20234;-72
2022/10/29 02:54:47;;;;;;;6.87;3.50;;;;;;;10.67;100.00;101328.31;4999028;28;20572;-72
2022/10/29 02:57:13;;;;;;;4.80;3.23;;;;;;;10.68;100.00;101324.84;5007961;28;20206;-71
2022/10/29 02:59:39;;;;;;;5.73;3.43;;;;;;;10.68;100.00;101333.53;5004746;28;20573;-72
2022/10/29 03:02:06;;;;;;;5.40;3.53;;;;;;;10.69;100.00;101340.44;5020277;23;20228;-72
2022/10/29 03:04:33;;;;;;;4.87;3.37;;;;;;;10.68;100.00;101345.72;5028101;28;20706;-72
2022/10/29 03:06:59;;;;;;;4.60;3.50;;;;;;;10.72;100.00;101345.63;5031590;28;20689;-71
2022/10/29 03:09:27;;;;;;;5.37;3.27;;;;;;;10.75;100.00;101347.34;5007853;28;20218;-71
2022/10/29 03:11:54;;;;;;;10.10;3.93;;;;;;;10.77;100.00;101350.78;5014382;28;20199;-72
2022/10/29 03:14:20;;;;;;;6.57;3.30;;;;;;;10.79;100.00;101351.63;4989578;28;20212;-71
2022/10/29 03:16:47;;;;;;;5.00;3.70;;;;;;;10.83;100.00;101352.44;5010504;28;20207;-71
2022/10/29 03:19:15;;;;;;;6.23;3.43;;;;;;;10.85;100.00;101351.50;5016136;28;20229;-71
2022/10/29 03:21:41;;;;;;;7.03;3.53;;;;;;;10.86;100.00;101355.00;5015398;28;20211;-72
2022/10/29 03:24:08;;;;;;;6.17;3.50;;;;;;;10.86;100.00;101361.06;5008872;28;20203;-71
2022/10/29 03:26:35;;;;;;;5.67;3.83;;;;;;;10.84;100.00;101360.22;5008806;28;20207;-72
2022/10/29 03:29:02;;;;;;;4.90;3.20;;;;;;;10.83;100.00;101363.72;5013627;28;20227;-72
2022/10/29 03:31:29;;;;;;;8.90;3.50;;;;;;;10.86;100.00;101362.81;5002872;28;20202;-72
2022/10/29 03:33:55;;;;;;;7.70;4.17;;;;;;;10.86;100.00;101366.28;5014960;28;20229;-72
2022/10/29 03:36:21;;;;;;;6.37;3.50;;;;;;;10.86;100.00;101355.00;5011010;28;20227;-72
2022/10/29 03:38:48;;;;;;;5.83;3.53;;;;;;;10.88;100.00;101361.03;5007156;28;20228;-72
2022/10/29 03:41:14;;;;;;;5.17;3.47;;;;;;;10.86;100.00;101357.59;5011927;28;20218;-72
2022/10/29 03:43:42;;;;;;;6.07;3.47;;;;;;;10.83;100.00;101361.09;5006731;28;20540;-70
2022/10/29 03:46:09;;;;;;;6.77;3.13;;;;;;;10.80;100.00;101364.63;5000384;28;20208;-72
2022/10/29 03:48:35;;;;;;;7.03;3.10;;;;;;;10.82;100.00;101364.63;5006833;28;20212;-72
2022/10/29 03:51:05;;;;;;;6.87;3.90;;;;;;;10.79;100.00;101355.06;5009015;28;20211;-74
2022/10/29 03:53:32;;;;;;;5.57;3.20;;;;;;;10.76;100.00;101359.47;5008725;28;20215;-73
2022/10/29 03:55:59;;;;;;;7.60;3.50;;;;;;;10.72;100.00;101365.63;5007929;28;20206;-73
2022/10/29 03:58:26;;;;;;;6.53;3.40;;;;;;;10.69;100.00;101366.53;5012002;28;20230;-71
2022/10/29 04:00:55;;;;;;;5.93;3.10;;;;;;;10.67;100.00;101367.44;4997695;28;20567;-74
2022/10/29 04:03:22;;;;;;;3.67;3.27;;;;;;;10.66;100.00;101366.59;5011573;28;20210;-73
2022/10/29 04:05:48;;;;;;;5.53;3.30;;;;;;;10.67;100.00;101370.91;5007830;28;20226;-68
2022/10/29 04:08:15;;;;;;;4.60;3.50;;;;;;;10.69;100.00;101363.06;4999900;28;20700;-74
2022/10/29 04:10:44;;;;;;;7.07;3.67;;;;;;;10.70;100.00;101368.25;5019062;28;20259;-74
2022/10/29 04:13:10;;;;;;;5.93;3.40;;;;;;;10.72;100.00;101368.25;5021907;28;20264;-71
2022/10/29 04:15:36;;;;;;;6.30;3.20;;;;;;;10.74;100.00;101367.31;5018371;28;20223;-73
2022/10/29 04:18:04;;;;;;;9.13;3.77;;;;;;;10.75;100.00;101369.06;5017703;28;20307;-73
2022/10/29 04:20:31;;;;;;;4.27;3.20;;;;;;;10.76;100.00;101373.41;5019188;28;20664;-73
2022/10/29 04:22:57;;;;;;;4.77;3.10;;;;;;;10.76;100.00;101373.41;5015835;28;20665;-74
2022/10/29 04:25:24;;;;;;;5.47;3.30;;;;;;;10.75;100.00;101379.50;5014600;28;20407;-73
2022/10/29 04:27:50;;;;;;;11.50;3.67;;;;;;;10.75;100.00;101381.25;5014957;28;20222;-74
2022/10/29 04:30:17;;;;;;;6.00;3.57;;;;;;;10.77;100.00;101369.91;5015471;28;20214;-71
2022/10/29 04:32:43;;;;;;;4.43;3.10;;;;;;;10.75;100.00;101376.88;5007617;28;20679;-73
2022/10/29 04:35:12;;;;;;;4.73;3.00;;;;;;;10.73;100.00;101370.84;4997112;28;20204;-73
2022/10/29 04:37:38;;;;;;;3.77;3.00;;;;;;;10.70;100.00;101373.47;5010838;28;20204;-73
2022/10/29 04:40:06;;;;;;;4.70;3.33;;;;;;;10.69;100.00;101381.31;5015080;28;20196;-71
2022/10/29 04:42:35;;;;;;;7.63;3.63;;;;;;;10.69;100.00;101381.31;5011409;28;20223;-74
2022/10/29 04:45:02;;;;;;;5.00;3.13;;;;;;;10.66;100.00;101376.13;5016877;28;20387;-72
2022/10/29 04:47:28;;;;;;;5.73;3.10;;;;;;;10.61;100.00;101371.00;5014347;28;20713;-72
2022/10/29 04:49:54;;;;;;;5.53;3.37;;;;;;;10.58;100.00;101381.47;5015365;28;20231;-73
2022/10/29 04:52:22;;;;;;;5.40;3.27;;;;;;;10.54;100.00;101380.66;4996795;28;20371;-74
2022/10/29 04:54:49;;;;;;;5.90;3.23;;;;;;;10.54;100.00;101380.66;5015055;28;20222;-74
2022/10/29 04:57:15;;;;;;;6.93;3.13;;;;;;;10.53;100.00;101381.53;5015091;28;20204;-74
2022/10/29 04:59:41;;;;;;;5.77;3.67;;;;;;;10.53;100.00;101381.53;5009119;28;20231;-73
2022/10/29 05:02:08;;;;;;;5.47;3.90;;;;;;;10.53;100.00;101380.69;4974051;28;1116876;-71
2022/10/29 05:04:34;;;;;;;4.40;3.20;;;;;;;10.52;100.00;101376.38;5014109;28;20210;-73
2022/10/29 05:07:01;;;;;;;7.40;3.47;;;;;;;10.53;100.00;101378.06;5013644;28;20261;-73
2022/10/29 05:09:28;;;;;;;8.03;3.43;;;;;;;10.54;100.00;101379.81;5015974;28;20219;-73
2022/10/29 05:11:55;;;;;;;7.63;3.43;;;;;;;10.55;100.00;101378.91;5013985;28;20203;-72
2022/10/29 05:14:21;;;;;;;9.07;3.57;;;;;;;10.60;100.00;101380.56;5014806;28;20204;-73
2022/10/29 05:16:47;;;;;;;3.87;3.27;;;;;;;10.64;100.00;101388.34;5010155;28;20200;-73
2022/10/29 05:19:14;;;;;;;5.43;3.53;;;;;;;10.64;100.00;101386.63;4996053;28;20230;-73
2022/10/29 05:21:40;;;;;;;7.93;3.80;;;;;;;10.63;100.00;101382.28;5010339;28;20202;-71
2022/10/29 05:24:07;;;;;;;7.77;3.90;;;;;;;10.63;100.00;101389.25;5000751;28;20207;-71
2022/10/29 05:26:35;;;;;;;5.03;3.60;;;;;;;10.62;100.00;101388.38;5016339;28;20299;-71
2022/10/29 05:29:02;;;;;;;7.07;3.53;;;;;;;10.65;100.00;101379.66;5015383;28;20274;-71
2022/10/29 05:31:29;;;;;;;5.27;3.40;;;;;;;10.65;100.00;101379.66;5010568;28;20193;-71
2022/10/29 05:33:55;;;;;;;6.93;3.93;;;;;;;10.65;100.00;101380.50;5015102;28;20218;-72
2022/10/29 05:36:22;;;;;;;6.40;3.83;;;;;;;10.67;100.00;101390.91;5009368;28;20203;-72
2022/10/29 05:38:48;;;;;;;8.40;3.53;;;;;;;10.65;100.00;101383.13;5007622;28;20228;-72
2022/10/29 05:41:16;;;;;;;6.10;3.50;;;;;;;10.66;100.00;101379.63;5015879;28;20199;-72
2022/10/29 05:43:44;;;;;;;5.83;3.60;;;;;;;10.70;100.00;101383.91;5016128;28;20311;-72
2022/10/29 05:46:10;;;;;;;5.67;3.97;;;;;;;10.69;100.00;101400.44;5011315;28;20233;-71
2022/10/29 05:48:37;;;;;;;7.13;4.27;;;;;;;10.67;100.00;101398.75;5010217;28;20315;-72
2022/10/29 05:51:03;;;;;;;7.37;4.00;;;;;;;10.65;100.00;101395.31;5009230;28;20196;-70
2022/10/29 05:53:29;;;;;;;8.37;3.77;;;;;;;10.67;100.00;101398.75;5010770;28;20240;-72
2022/10/29 05:55:58;;;;;;;4.63;3.47;;;;;;;10.70;100.00;101394.34;4993661;28;20208;-72
2022/10/29 05:58:24;;;;;;;5.63;3.63;;;;;;;10.76;100.00;101396.00;5014833;28;20238;-72
2022/10/29 06:00:52;;;;;;;7.23;4.30;;;;;;;10.78;100.00;101387.28;5016428;28;20203;-72
2022/10/29 06:03:21;;;;;;;5.90;3.90;;;;;;;10.82;100.00;101384.59;4995080;28;20238;-70
2022/10/29 06:05:49;;;;;;;7.73;4.23;;;;;;;10.88;100.00;101380.16;5012493;28;20579;-70
2022/10/29 06:08:16;;;;;;;10.37;4.50;;;;;;;10.94;100.00;101381.81;5008055;28;20792;-70
2022/10/29 06:10:43;;;;;;;6.47;4.23;;;;;;;10.96;100.00;101380.06;4992615;28;20965;-70
2022/10/29 06:13:11;;;;;;;7.23;4.33;;;;;;;10.99;100.00;101380.00;5006614;28;20199;-70
2022/10/29 06:15:37;;;;;;;7.70;5.73;;;;;;;11.00;100.00;101381.72;5010148;28;20197;-70
2022/10/29 06:18:05;;;;;;;9.03;5.30;;;;;;;10.99;100.00;101390.44;5006234;28;20482;-70
2022/10/29 06:20:31;;;;;;;9.20;5.47;;;;;;;10.96;100.00;101396.56;5002942;28;20193;-70
2022/10/29 06:22:58;;;;;;;8.70;5.33;;;;;;;10.97;100.00;101387.84;5009362;28;20205;-71
2022/10/29 06:25:26;;;;;;;11.50;4.77;;;;;;;10.94;100.00;101390.53;5003727;28;20228;-71
2022/10/29 06:28:00;;;;;;;6.93;4.27;;;;;;;10.94;100.00;101398.34;5008920;28;20274;-70
2022/10/29 06:30:32;;;;;;;6.27;4.20;;;;;;;10.96;100.00;101395.72;5011327;28;20235;-70
2022/10/29 06:32:59;;;;;;;6.57;4.40;;;;;;;10.99;100.00;101411.31;5012287;28;20679;-71
2022/10/29 06:35:27;;;;;;;7.10;3.67;;;;;;;11.02;100.00;101411.25;5007929;28;20660;-73
2022/10/29 06:37:54;;;;;;;7.23;4.23;;;;;;;11.05;100.00;101413.81;5010520;28;20224;-72
2022/10/29 06:40:20;;;;;;;6.53;4.50;;;;;;;11.08;100.00;101413.78;5007792;28;20208;-71
2022/10/29 06:42:46;;;;;;;10.73;4.37;;;;;;;11.10;100.00;101424.19;5007989;28;20611;-70
2022/10/29 06:45:13;;;;;;;11.47;4.00;;;;;;;11.13;100.00;101425.03;5003417;28;20200;-70
2022/10/29 06:47:40;;;;;;;5.47;3.80;;;;;;;11.18;100.00;101419.72;5003072;28;20704;-73
2022/10/29 06:50:08;;;;;;;5.20;4.20;;;;;;;11.27;100.00;101421.31;5008454;28;20197;-70
2022/10/29 06:52:36;;;;;;;5.13;4.07;;;;;;;11.37;100.00;101430.72;5004190;28;20567;-71
2022/10/29 06:55:03;;;;;;;9.67;4.63;;;;;;;11.48;100.00;101423.56;5007003;28;20503;-71
2022/10/29 06:57:30;;;;;;;9.70;4.40;;;;;;;11.61;100.00;101423.34;5006550;28;20207;-73
2022/10/29 06:59:57;;;;;;;10.57;5.07;;;;;;;11.73;100.00;101417.91;5010080;28;20283;-71
2022/10/29 07:02:23;;;;;;;10.00;5.00;;;;;;;11.83;100.00;101419.44;4998208;28;20205;-72
2022/10/29 07:04:50;;;;;;;11.60;4.90;;;;;;;11.93;100.00;101428.88;4987219;28;20208;-75
2022/10/29 07:07:17;;;;;;;7.20;4.53;;;;;;;12.05;100.00;101424.31;4989607;28;20225;-70
2022/10/29 07:09:45;;;;;;;7.23;4.37;;;;;;;12.17;100.00;101431.94;4989295;28;20225;-71
2022/10/29 07:12:11;;;;;;;11.77;5.37;;;;;;;12.32;100.00;101426.38;4979477;28;21298;-73
2022/10/29 07:14:37;;;;;;;9.73;4.90;;;;;;;12.43;100.00;101435.75;4986481;28;20209;-70
2022/10/29 07:17:04;;;;;;;9.70;4.80;;;;;;;12.53;100.00;101439.03;4987314;28;20201;-71
2022/10/29 07:19:30;;;;;;;7.83;4.67;;;;;;;12.64;100.00;101437.91;4984548;28;20242;-73
2022/10/29 07:21:57;;;;;;;8.53;4.60;;;;;;;12.75;100.00;101439.41;4990553;28;20689;-70
2022/10/29 07:24:23;;;;;;;7.93;4.60;;;;;;;12.83;100.00;101440.97;4987683;28;20205;-69
2022/10/29 07:26:51;;;;;;;7.13;4.30;;;;;;;12.91;100.00;101437.31;4986947;28;20222;-70
2022/10/29 07:29:17;;;;;;;12.53;4.70;;;;;;;12.98;100.00;101437.16;4987804;28;20331;-71
2022/10/29 07:31:44;;;;;;;10.90;4.77;;;;;;;13.06;100.00;101436.97;4969986;28;20259;-70
2022/10/29 07:34:10;;;;;;;8.10;4.30;;;;;;;13.14;100.00;101434.16;5003350;28;20199;-71
2022/10/29 07:36:36;;;;;;;9.00;4.27;;;;;;;13.18;100.00;101428.81;5002319;28;20202;-73
2022/10/29 07:39:03;;;;;;;9.90;3.93;;;;;;;13.24;100.00;101433.03;5005887;28;20220;-73
2022/10/29 07:41:30;;;;;;;4.53;3.63;;;;;;;13.29;100.00;101436.41;5001175;28;20293;-71
2022/10/29 07:43:58;;;;;;;5.87;3.30;;;;;;;13.40;100.00;101437.06;5008411;28;20214;-73
2022/10/29 07:46:25;;;;;;;6.33;4.47;;;;;;;13.48;100.00;101429.00;5006627;28;20223;-70
2022/10/29 07:48:51;;;;;;;4.43;3.40;;;;;;;13.54;100.00;101420.97;5005762;28;20221;-70
2022/10/29 07:51:18;;;;;;;7.47;3.97;;;;;;;13.65;100.00;101428.56;5002033;28;20692;-72
2022/10/29 07:53:45;;;;;;;6.13;3.80;;;;;;;13.79;100.00;101433.41;5006068;28;20211;-71
2022/10/29 07:56:11;;;;;;;5.43;3.57;;;;;;;13.92;100.00;101436.59;5001034;28;20215;-71
2022/10/29 07:58:38;;;;;;;6.30;3.90;;;;;;;14.05;100.00;101437.94;5004681;28;20231;-75
2022/10/29 08:01:06;;;;;;;4.50;3.10;;;;;;;14.20;100.00;101439.31;5005589;28;20241;-74
2022/10/29 08:03:32;;;;;;;6.17;3.37;;;;;;;14.34;100.00;101441.53;5005794;28;20228;-73
2022/10/29 08:05:59;;;;;;;4.47;3.00;;;;;;;14.44;100.00;101437.75;5003467;28;20218;-71
2022/10/29 08:08:25;;;;;;;5.80;3.70;;;;;;;14.59;100.00;101436.44;5005157;28;20223;-71
2022/10/29 08:10:52;;;;;;;6.43;3.47;;;;;;;14.72;100.00;101435.19;5002179;28;20192;-71
2022/10/29 08:13:18;;;;;;;9.47;3.40;;;;;;;14.84;100.00;101433.06;5005446;28;20215;-71
2022/10/29 08:15:46;;;;;;;6.97;3.30;;;;;;;14.90;100.00;101446.03;4999984;28;20200;-72
2022/10/29 08:18:17;;;;;;;8.33;3.10;;;;;;;14.96;100.00;101444.03;5003483;28;20685;-72
2022/10/29 08:20:43;;;;;;;6.93;3.40;;;;;;;15.01;100.00;101435.19;5001589;28;20426;-71
2022/10/29 08:23:10;;;;;;;5.00;2.80;;;;;;;15.10;100.00;101445.38;5001670;28;20631;-71
2022/10/29 08:25:40;;;;;;;7.10;3.10;;;;;;;15.18;100.00;101438.13;5001946;28;20197;-72
2022/10/29 08:28:08;;;;;;;8.87;3.23;;;;;;;15.27;100.00;101442.22;5004403;28;20224;-73
2022/10/29 08:30:35;;;;;;;5.70;2.50;;;;;;;15.34;100.00;101436.72;4999360;28;20288;-72
2022/10/29 08:33:04;;;;;;;6.07;2.90;;;;;;;15.39;100.00;101443.56;5005201;28;20205;-73
2022/10/29 08:35:32;;;;;;;4.87;2.60;;;;;;;15.40;100.00;101442.69;5008321;28;20205;-73
2022/10/29 08:37:59;;;;;;;3.77;2.90;;;;;;;15.39;100.00;101435.69;5002208;28;20212;-72
2022/10/29 08:40:35;;;;;;;3.00;2.30;;;;;;;15.34;100.00;101444.59;4986811;28;20671;-72
2022/10/29 08:43:28;;;;;;;4.50;2.77;;;;;;;15.33;100.00;101445.50;4997403;28;20726;-72
2022/10/29 08:45:55;;;;;;;6.87;3.13;;;;;;;15.37;100.00;101437.50;5000658;28;20196;-72
2022/10/29 08:48:35;;;;;;;3.50;3.00;;;;;;;15.44;100.00;101441.66;5001950;28;20703;-73
2022/10/29 08:51:11;;;;;;;4.93;3.30;;;;;;;15.55;100.00;101450.06;5006537;28;20192;-73
2022/10/29 08:53:42;;;;;;;6.93;2.97;;;;;;;15.59;100.00;101451.66;5004552;28;20257;-72
2022/10/29 08:56:13;;;;;;;4.43;2.83;;;;;;;15.68;100.00;101451.34;5007569;28;20267;-70
2022/10/29 08:58:47;;;;;;;7.07;3.23;;;;;;;15.75;100.00;101448.53;5006153;28;20243;-74
2022/10/29 09:01:21;;;;;;;4.87;2.90;;;;;;;15.79;100.00;101451.00;5006797;28;20200;-74
2022/10/29 09:03:49;;;;;;;5.83;3.67;;;;;;;15.87;100.00;101453.38;5009672;28;20216;-73
2022/10/29 09:06:23;;;;;;;5.33;3.60;;;;;;;15.98;100.00;101455.63;5008728;28;20481;-71
2022/10/29 09:09:23;;;;;;;4.93;3.10;;;;;;;16.02;100.00;101458.09;5007197;28;20223;-71
2022/10/29 09:12:07;;;;;;;5.70;2.87;;;;;;;16.08;100.00;101460.50;5007292;28;20692;-72
2022/10/29 09:14:49;;;;;;;4.63;2.60;;;;;;;16.15;100.00;101455.03;5003377;28;20598;-70
2022/10/29 09:17:27;;;;;;;5.13;3.20;;;;;;;16.24;100.00;101455.53;5001420;28;20685;-70
2022/10/29 09:20:07;;;;;;;5.20;2.80;;;;;;;16.32;100.00;101457.88;5010732;28;20284;-70
2022/10/29 09:22:44;;;;;;;6.30;2.97;;;;;;;16.40;100.00;101463.72;5007467;28;20196;-73
2022/10/29 09:25:17;;;;;;;4.00;2.67;;;;;;;16.45;100.00;101469.66;5003382;28;20577;-71
2022/10/29 09:27:57;;;;;;;4.50;2.60;;;;;;;16.46;100.00;101462.63;4993636;28;20236;-71
2022/10/29 09:30:29;;;;;;;5.90;2.83;;;;;;;16.50;100.00;101466.00;5009147;28;20216;-71
2022/10/29 09:32:59;;;;;;;3.80;2.70;;;;;;;16.57;100.00;101465.72;5008156;28;20204;-71
2022/10/29 09:35:37;;;;;;;3.43;2.40;;;;;;;16.63;100.00;101467.25;5004209;28;20189;-72
2022/10/29 09:38:12;;;;;;;6.27;2.73;;;;;;;16.76;100.00;101465.88;5009134;28;20230;-71
2022/10/29 09:40:41;;;;;;;4.53;2.70;;;;;;;16.86;100.00;101465.56;5003901;28;20204;-72
2022/10/29 09:43:23;;;;;;;4.37;2.63;;;;;;;16.92;100.00;101465.28;5003100;28;20224;-72
2022/10/29 09:46:00;;;;;;;3.10;2.30;;;;;;;17.04;100.00;101470.06;5001850;28;20205;-73
2022/10/29 09:48:34;;;;;;;5.40;2.70;;;;;;;17.15;100.00;101469.66;5006687;28;20703;-73
2022/10/29 09:51:14;;;;;;;4.67;3.20;;;;;;;17.20;100.00;101470.31;5007909;28;20211;-71
2022/10/29 09:53:43;;;;;;;5.33;2.93;;;;;;;17.20;100.00;101465.94;5006056;28;20665;-70
2022/10/29 09:56:09;;;;;;;4.53;2.97;;;;;;;17.23;100.00;101467.56;5009397;28;20193;-72
2022/10/29 09:58:40;;;;;;;4.83;2.93;;;;;;;17.25;100.00;101475.41;5006622;28;20227;-71
2022/10/29 10:01:07;;;;;;;4.60;2.43;;;;;;;17.28;100.00;101476.16;5009551;28;20197;-73
2022/10/29 10:03:37;;;;;;;7.00;3.30;;;;;;;17.34;100.00;101461.84;5003942;28;20679;-71
2022/10/29 10:06:05;;;;;;;4.47;2.67;;;;;;;17.38;100.00;101459.03;5002456;28;20197;-72
2022/10/29 10:08:33;;;;;;;6.70;2.70;;;;;;;17.44;100.00;101464.97;5009423;28;20220;-72
2022/10/29 10:11:03;;;;;;;6.30;2.90;;;;;;;17.47;100.00;101462.22;5007755;28;20677;-72
2022/10/29 10:13:32;;;;;;;4.03;2.47;;;;;;;17.52;100.00;101469.00;5007511;28;20224;-72
2022/10/29 10:16:00;;;;;;;6.37;2.67;;;;;;;17.57;100.00;101468.78;5002510;28;20207;-71
2022/10/29 10:18:39;;;;;;;4.20;2.53;;;;;;;17.63;100.00;101470.34;5003067;28;20224;-72
2022/10/29 10:21:07;;;;;;;7.83;2.37;;;;;;;17.70;100.00;101469.16;4998783;28;20997;-72
2022/10/29 10:23:43;;;;;;;7.50;2.83;;;;;;;17.72;100.00;101473.44;5013678;28;20196;-72
2022/10/29 10:26:34;;;;;;;6.93;2.60;;;;;;;17.78;100.00;101462.63;5000291;28;20655;-72
2022/10/29 10:29:14;;;;;;;6.77;2.40;;;;;;;17.77;100.00;101465.34;5003677;28;20767;-72
2022/10/29 10:31:43;;;;;;;5.40;2.73;;;;;;;17.87;100.00;101455.25;5002587;28;20199;-72
2022/10/29 10:34:15;;;;;;;7.33;2.90;;;;;;;18.01;100.00;101449.38;5005486;28;20228;-71
2022/10/29 10:36:44;;;;;;;5.83;2.40;;;;;;;18.03;100.00;101442.25;5004111;28;20660;-72
2022/10/29 10:39:23;;;;;;;6.53;2.70;;;;;;;18.08;100.00;101451.69;5003813;28;20303;-72
2022/10/29 10:41:51;;;;;;;5.70;2.43;;;;;;;18.13;100.00;101443.56;5008747;28;20199;-72
2022/10/29 10:44:20;;;;;;;4.43;2.73;;;;;;;18.15;100.00;101441.69;5011266;28;20545;-72
2022/10/29 10:46:48;;;;;;;6.03;2.60;;;;;;;18.21;100.00;101436.16;5002610;28;20208;-72
2022/10/29 10:49:18;;;;;;;6.03;2.40;;;;;;;18.29;100.00;101438.44;5004302;28;20228;-72
2022/10/29 10:51:48;;;;;;;7.73;2.63;;;;;;;18.34;100.00;101431.16;5008121;28;20193;-72
2022/10/29 10:54:29;;;;;;;7.77;2.67;;;;;;;18.40;100.00;101437.94;5007675;28;20193;-72
2022/10/29 10:56:59;;;;;;;3.13;2.27;;;;;;;18.42;100.00;101429.03;5002244;28;20701;-73
2022/10/29 10:59:33;;;;;;;6.77;2.53;;;;;;;18.38;100.00;101422.22;5004791;28;20225;-73
2022/10/29 11:02:01;;;;;;;5.60;2.87;;;;;;;18.41;100.00;101414.13;5002658;28;20210;-72
2022/10/29 11:04:33;;;;;;;3.90;2.70;;;;;;;18.42;100.00;101415.00;5001147;28;20661;-71
2022/10/29 11:07:05;;;;;;;7.87;2.90;;;;;;;18.41;100.00;101426.47;4998011;28;20226;-73
2022/10/29 11:09:37;;;;;;;4.33;2.73;;;;;;;18.42;100.00;101417.63;5001438;28;20708;-72
2022/10/29 11:12:12;;;;;;;4.00;2.67;;;;;;;18.41;100.00;101418.56;5006851;28;20673;-71
2022/10/29 11:14:46;;;;;;;7.07;3.03;;;;;;;18.51;100.00;101414.56;5005093;28;20218;-71
2022/10/29 11:17:26;;;;;;;5.17;2.67;;;;;;;18.55;100.00;101421.41;4996114;28;20207;-72
2022/10/29 11:19:56;;;;;;;4.37;2.60;;;;;;;18.64;100.00;101422.75;4997252;28;20259;-72
2022/10/29 11:22:29;;;;;;;5.77;2.70;;;;;;;18.67;100.00;101418.19;5001592;28;20204;-72
2022/10/29 11:25:02;;;;;;;7.57;3.27;;;;;;;18.65;100.00;101414.75;5002575;28;20203;-72
2022/10/29 11:27:39;;;;;;;9.23;3.50;;;;;;;18.59;100.00;101415.06;5005214;28;20207;-73